Yacolt, Washington
Current Conditions -  °F | °C
As of 1:53 PM on Tuesday 21 Oct 2014 (Local Time) from KVUO Reporting Station
Overcast Overcast  
Wind Chill: 16°   Ceiling: 6000
Heat Index: 16°   Visibility: 10mi
Dew Point:   Wind: 7mph
Humidity: 64%   Direction: 170°S
Pressure: 29.98"   Gusts: NA
Location:  45.87°N, 122.41°W
Report Text: KVUO 212053Z AUTO 17006KT 10SM FEW033 OVC060 16/09 A2998 RMK AO2 SLP152 T01610094 58007
Loading
Personal Weather Stations






























Interactive Weather Map
Tropical Storm Tracking
New forecast layout! Learn more

10-Day Weather Forecast

Advertisements
Track Severe Weather on mobile